• Join FlightAware (Why Join?)
  • Login
  • US Flag 
07:59PM EDT


 

Airport Tracker/Info


-or-


 

Live Flight TrackerFlight Track Log ✈ N287MC ✈ 19-Jun-2013 ✈ KSGR - KCZT

Flight Track Log - Related Links

Times and Time Zones

All times are in EDT time to prevent confusion due to time zone crossing. See the N287MC flight status page for this flight to view local times or setup timezone preferences in your user account.

Time Position Orientation Groundspeed Altitude Reporting Facility
EDT Latitude Longitude Course Direction KTS MPH feet Rate Location/Type
07:57AM 29.6122 -95.6572 174° South 76 87 600  Level Houston Center
07:58AM 29.5611 -95.6511 174° South 196 226 2,600 2,580 Climbing Houston Center
07:59AM 29.4878 -95.6472 177° South 195 224 6,900 3,060 Climbing Houston Center
08:00AM 29.4275 -95.6458 179° South 212 244 10,100 2,820 Climbing Houston Center
08:01AM 29.3625 -95.6597 191° South 242 278 12,700 2,460 Climbing Houston Center
08:02AM 29.3019 -95.7144 218° Southwest 273 314 15,200 2,400 Climbing Houston Center
08:03AM 29.2336 -95.7653 213° Southwest 286 329 17,600 2,160 Climbing Houston Center
08:04AM 29.1519 -95.8419 219° Southwest 314 361 19,700 1,860 Climbing Houston Center
08:05AM 29.0875 -95.9203 227° Southwest 334 384 21,500 1,740 Climbing Houston Center
08:07AM 29.0575 -96.0183 251° West 336 387 23,300 1,740 Climbing Houston Center
08:08AM 29.0444 -96.1256 262° West 340 391 25,100 1,740 Climbing Houston Center
08:09AM 29.0308 -96.2336 262° West 342 394 26,900 1,380 Climbing Houston Center
08:10AM 29.0175 -96.3414 262° West 343 395 28,000 540 Climbing Houston Center
08:11AM 29.0017 -96.4619 261° West 381 438 28,000  Level Houston Center
08:12AM 28.9842 -96.5911 261° West 406 467 28,000  Level Houston Center
08:13AM 28.9672 -96.7239 262° West 417 480 28,000  Level Houston Center
08:14AM 28.9494 -96.8611 262° West 429 494 28,000  Level Houston Center
08:15AM 28.9311 -96.9978 261° West 432 497 28,000  Level Houston Center
08:16AM 28.9136 -97.1336 262° West 431 496 28,000  Level Houston Center
08:17AM 28.8917 -97.2967 261° West 429 494 28,000  Level Houston Center
08:18AM 28.8731 -97.4311 261° West 428 493 28,000  Level Houston Center
08:19AM 28.8542 -97.5664 261° West 430 495 28,000  Level Houston Center
08:20AM 28.8364 -97.7006 261° West 428 493 28,000  Level Houston Center
08:21AM 28.8161 -97.8336 260° West 427 491 28,000  Level Houston Center
08:22AM 28.7978 -97.9692 261° West 429 494 28,000  Level Houston Center
08:23AM 28.7764 -98.1225 261° West 434 499 28,000  Level Houston Center
08:24AM 28.7581 -98.2558 261° West 429 494 28,000  Level Houston Center
08:25AM 28.7375 -98.4011 261° West 430 495 28,000 -600 Level Houston Center
08:26AM 28.7186 -98.5350 261° West 429 494 26,800 -1,860 Descending Houston Center
08:27AM 28.6992 -98.6644 260° West 419 482 24,300 -2,400 Descending Houston Center
08:28AM 28.6808 -98.7811 260° West 415 478 22,000 -2,340 Descending Houston Center
08:29AM 28.6617 -98.9097 260° West 414 476 19,500 -2,760 Descending Houston Center
08:30AM 28.6400 -99.0556 260° West 399 459 16,400 -2,880 Descending Houston Center
08:31AM 28.6239 -99.1731 261° West 385 443 13,700 -2,640 Descending Houston Center
08:32AM 28.6056 -99.2858 260° West 372 428 11,000 -2,400 Descending Houston Center
08:33AM 28.5914 -99.3839 261° West 330 380 8,900 -2,280 Descending Houston Center
08:34AM 28.5778 -99.4706 260° West 294 338 6,400 -2,400 Descending Houston Center
08:35AM 28.5650 -99.5572 260° West 283 326 4,000 -1,680 Descending Houston Center
08:36AM 28.5519 -99.6414 260° West 277 319 3,000 -1,020 Descending Houston Center